Flight Track Log - Related Links

Times and Time Zones

All times are in EDT time to prevent confusion due to time zone crossing. See the DAL95 flight status page for this flight to view local times or setup timezone preferences in your user account.

Time Position Orientation Groundspeed Altitude Reporting Facility
EDT Latitude Longitude Course Direction KTS MPH feet Rate Location/Type
Sun 04:57:45 PM 40.6167 -73.8667 327° Northwest 213 245 3,600  Level New York TRACON
Sun 04:58:51 PM 40.5500 -73.8167 150° Southeast 262 302 6,900 2,900 Climbing New York TRACON
Sun 04:59:45 PM 40.5667 -73.7333 75° East 290 334 9,400 3,000 Climbing New York TRACON
Sun 05:00:51 PM 40.6167 -73.6333 57° Northeast 286 329 12,900 2,905 Climbing New York TRACON
Sun 05:01:51 PM 40.6500 -73.5500 62° Northeast 304 350 15,500 2,158 Climbing New York TRACON
Sun 05:02:45 PM 40.7167 -73.5167 21° North 278 320 17,000 842 Climbing New York TRACON
Sun 05:03:00 PM 41.1303 -74.1473 327° Northwest  Level FlightAware Approximate
Sun 05:03:45 PM 40.8167 -73.5000 North 352 405 17,100  Level New York TRACON
Sun 05:04:45 PM 40.9167 -73.5333 346° North 403 464 17,100  Level New York TRACON
Sun 05:05:45 PM 40.9833 -73.6333 311° West 361 415 17,100  Level New York TRACON
Sun 05:06:45 PM 41.0500 -73.7500 307° West 355 409 17,100  Level New York TRACON
Sun 05:08:58 PM 41.1808 -73.9717 308° West 357 411 17,100 -31 Level New York Center
Sun 05:10:00 PM 41.2403 -74.0739 308° West 357 411 17,000  Descending New York Center
Sun 05:10:58 PM 41.2919 -74.1619 308° West 326 375 17,100 50 Climbing New York Center
Sun 05:12:00 PM 41.3394 -74.2472 307° West 302 348 17,100 148 Level New York Center
Sun 05:13:00 PM 41.3850 -74.3242 308° West 291 335 17,400 1,322 Climbing New York Center
Sun 05:13:58 PM 41.4344 -74.4125 307° West 296 341 19,700 2,269 Climbing New York Center
Sun 05:14:59 PM 41.4772 -74.5119 300° West 296 341 21,900 2,182 Climbing New York Center
Sun 05:15:59 PM 41.5197 -74.6139 299° West 309 356 24,100 2,050 Climbing New York Center
Sun 05:16:59 PM 41.5642 -74.7219 299° West 321 369 26,000 1,850 Climbing New York Center
Sun 05:17:59 PM 41.6103 -74.8300 300° West 327 376 27,800 992 Climbing New York Center
Sun 05:19:00 PM 41.6567 -74.9383 300° West 338 389 28,000 99 Climbing New York Center
Sun 05:20:00 PM 41.7047 -75.0525 299° West 344 396 28,000 -102 Level New York Center
Sun 05:20:58 PM 41.7506 -75.1611 300° West 344 396 27,800 -950 Descending New York Center
Sun 05:22:00 PM 41.7967 -75.2669 300° West 339 390 26,100 -878 Descending New York Center
Sun 05:23:01 PM 41.8422 -75.3786 299° West 339 390 26,000 -51 Descending New York Center
Sun 05:23:58 PM 41.8881 -75.4878 299° West 339 390 26,000  Level New York Center
Sun 05:25:00 PM 41.9336 -75.5942 300° West 339 390 26,000  Level New York Center
Sun 05:26:00 PM 41.9789 -75.7061 299° West 339 390 26,000  Level New York Center
Sun 05:26:58 PM 42.0244 -75.8128 300° West 339 390 26,000  Level New York Center
Sun 05:27:59 PM 42.0681 -75.9167 300° West 339 390 26,000  Level New York Center
Sun 05:29:00 PM 42.1131 -76.0292 298° West 339 390 26,000  Level New York Center
Sun 05:29:58 PM 42.1558 -76.1389 298° West 339 390 26,000  Level New York Center
Sun 05:30:58 PM 42.1672 -76.2603 277° West 332 382 26,000  Level New York Center
Sun 05:31:59 PM 42.1756 -76.3897 275° West 332 382 26,000  Level New York Center
Sun 05:32:59 PM 42.1878 -76.5250 277° West 337 388 26,000  Level New York Center
Sun 05:34:00 PM 42.1969 -76.6378 276° West 337 388 26,000  Level New York Center
Sun 05:34:58 PM 42.2050 -76.7672 275° West 342 394 26,000  Level New York Center
Sun 05:35:59 PM 42.2161 -76.9103 276° West 342 394 26,000  Level Cleveland Center
Sun 05:36:59 PM 42.2239 -77.0247 275° West 348 400 26,000  Level Cleveland Center
Sun 05:37:59 PM 42.2342 -77.1558 276° West 348 400 26,000  Level Cleveland Center
Sun 05:38:59 PM 42.2425 -77.3014 274° West 371 427 26,000  Level Cleveland Center
Sun 05:39:59 PM 42.2550 -77.4522 276° West 392 451 26,000  Level Cleveland Center
Sun 05:40:59 PM 42.2653 -77.6033 275° West 406 467 26,000  Level Cleveland Center
Sun 05:41:59 PM 42.2775 -77.7572 276° West 406 467 26,000  Level Cleveland Center
Sun 05:42:59 PM 42.2878 -77.9222 275° West 406 467 26,000  Level Cleveland Center
Sun 05:43:59 PM 42.2975 -78.0736 275° West 406 467 26,000  Level Cleveland Center
Sun 05:44:59 PM 42.3089 -78.2247 276° West 406 467 26,000  Level Cleveland Center
Sun 05:45:59 PM 42.3183 -78.3789 275° West 406 467 26,000  Level Cleveland Center
Sun 05:46:59 PM 42.3275 -78.5331 275° West 406 467 26,000  Level Cleveland Center
Sun 05:47:59 PM 42.3361 -78.6872 274° West 406 467 26,000  Level Cleveland Center
Sun 05:48:59 PM 42.3469 -78.8442 275° West 406 467 26,000  Level Cleveland Center
Sun 05:49:59 PM 42.3533 -78.9958 273° West 411 473 26,000  Level Cleveland Center
Sun 05:50:59 PM 42.3617 -79.1500 274° West 411 473 26,000  Level Cleveland Center
Sun 05:51:59 PM 42.3717 -79.2933 275° West 424 488 26,000  Level Cleveland Center
Sun 05:52:59 PM 42.3797 -79.4475 274° West 424 488 26,000  Level Cleveland Center
Sun 05:53:59 PM 42.3894 -79.6022 275° West 424 488 26,000  Level Cleveland Center
Sun 05:54:59 PM 42.3989 -79.7622 275° West 424 488 26,000  Level Cleveland Center
Sun 05:55:59 PM 42.4061 -79.9167 274° West 424 488 26,000  Level Cleveland Center
Sun 05:56:59 PM 42.4133 -80.0797 273° West 431 496 26,000  Level Cleveland Center
Sun 05:57:59 PM 42.4200 -80.2344 273° West 431 496 26,000 -450 Level Cleveland Center
Sun 05:58:59 PM 42.4289 -80.3947 274° West 426 490 25,100 -1,250 Descending Cleveland Center
Sun 05:59:59 PM 42.4372 -80.5522 274° West 421 484 23,500 -1,500 Descending Cleveland Center
Sun 06:00:59 PM 42.4433 -80.7097 273° West 421 484 22,100 -750 Descending Cleveland Center
Sun 06:01:59 PM 42.4514 -80.8675 274° West 421 484 22,000 -50 Descending Cleveland Center
Sun 06:02:59 PM 42.4553 -81.0194 272° West 421 484 22,000  Level Cleveland Center
Sun 06:03:59 PM 42.4608 -81.1742 273° West 421 484 22,000 -150 Level Cleveland Center
Sun 06:04:59 PM 42.4681 -81.3403 273° West 421 484 21,700 -1,150 Descending Cleveland Center
Sun 06:05:59 PM 42.4733 -81.4867 273° West 401 461 19,700 -1,850 Descending Cleveland Center
Sun 06:06:59 PM 42.4786 -81.6164 273° West 371 427 18,000 -1,350 Descending Cleveland Center
Sun 06:07:59 PM 42.4817 -81.7317 272° West 331 381 17,000 -900 Descending Cleveland Center
Sun 06:08:59 PM 42.4847 -81.8219 273° West 300 345 16,200 -850 Descending Cleveland Center
Sun 06:09:59 PM 42.4878 -81.9233 272° West 283 326 15,300 -900 Descending Cleveland Center
Sun 06:10:59 PM 42.4928 -82.0250 274° West 273 314 14,400 -900 Descending Cleveland Center
Sun 06:11:59 PM 42.4936 -82.1233 271° West 273 314 13,500 -900 Descending Cleveland Center
Sun 06:12:59 PM 42.4964 -82.2222 272° West 273 314 12,600 -750 Descending Cleveland Center
Sun 06:13:59 PM 42.4992 -82.3181 272° West 273 314 12,000 -300 Descending Cleveland Center
Sun 06:14:59 PM 42.5019 -82.4136 272° West 268 308 12,000  Level Cleveland Center
Sun 06:15:21 PM 42.5053 -82.4589 276° West 256 295 12,000  Level Cleveland Center
Sun 06:15:59 PM 42.5044 -82.5125 269° West 268 308 12,000  Level Cleveland Center
Sun 06:16:29 PM 42.4994 -82.5686 263° West 261 300 12,000 -400 Level Cleveland Center
Sun 06:16:59 PM 42.4883 -82.6019 246° West 263 303 11,600 -1,672 Descending Cleveland Center
Sun 06:17:30 PM 42.4706 -82.6578 247° West 253 291 10,300 -1,900 Descending Cleveland Center
Sun 06:17:59 PM 42.4556 -82.6881 236° Southwest 258 297 9,700 -1,279 Descending Cleveland Center
Sun 06:18:31 PM 42.4378 -82.7467 248° West 257 296 9,000 -700 Descending Cleveland Center
Sun 06:18:59 PM 42.4289 -82.7744 247° West 258 297 9,000 -492 Level Cleveland Center
Sun 06:19:32 PM 42.4233 -82.8392 263° West 240 276 8,500 -700 Descending Cleveland Center
Sun 06:19:59 PM 42.4208 -82.8642 262° West 249 287 8,300 -968 Descending Cleveland Center
Sun 06:20:34 PM 42.4556 -82.9078 317° Northwest 221 254 7,500 -1,100 Descending Cleveland Center
Sun 06:20:59 PM 42.4633 -82.9250 301° West 199 229 7,200 -985 Descending Cleveland Center
Sun 06:21:41 PM 42.4894 -82.9767 304° West 207 238 6,400 -1,000 Descending Cleveland Center
Sun 06:21:59 PM 42.4933 -82.9908 290° West 199 229 6,200 -393 Descending Cleveland Center
Sun 06:22:42 PM 42.5172 -83.0508 298° West 206 237 6,000 -200 Descending Cleveland Center
Sun 06:22:59 PM 42.5189 -83.0594 285° West 204 235 6,000  Level Cleveland Center
Sun 06:23:38 PM 42.5014 -83.1067 243° Southwest 165 190 6,000  Level Cleveland Center
Sun 06:24:39 PM 42.4689 -83.1531 226° Southwest 167 192 6,000  Level Cleveland Center
Sun 06:25:40 PM 42.4244 -83.1822 206° Southwest 168 193 6,000 -738 Level Cleveland Center
Sun 06:26:41 PM 42.3864 -83.2144 212° Southwest 162 186 4,500 -1,171 Descending Cleveland Center
Sun 06:27:43 PM 42.3461 -83.2408 206° Southwest 167 192 3,600 -872 Descending Cleveland Center
Sun 06:28:38 PM 42.3097 -83.2758 215° Southwest 175 201 2,800 -873 Descending Cleveland Center

Login

Don't have an account? Register now (free) for customized features, flight alerts, and more!